createdAt,value
2022-11-15T00:00:48.888Z,3.87
2022-11-15T00:03:20.188Z,5.40
2022-11-15T00:05:47.214Z,5.30
2022-11-15T00:08:14.292Z,4.77
2022-11-15T00:10:41.479Z,6.93
2022-11-15T00:13:10.430Z,6.10
2022-11-15T00:15:41.609Z,5.83
2022-11-15T00:18:13.868Z,4.53
2022-11-15T00:20:40.767Z,4.43
2022-11-15T00:23:08.103Z,5.27
2022-11-15T00:25:35.167Z,4.30
2022-11-15T00:28:02.235Z,4.30
2022-11-15T00:30:29.288Z,4.83
2022-11-15T00:32:56.337Z,5.63
2022-11-15T00:35:23.149Z,4.47
2022-11-15T00:37:50.185Z,5.73
2022-11-15T00:40:16.920Z,4.93
2022-11-15T00:42:43.935Z,5.37
2022-11-15T00:45:10.839Z,4.67
2022-11-15T00:47:37.456Z,11.90
2022-11-15T00:50:05.250Z,8.53
2022-11-15T00:52:31.830Z,6.13
2022-11-15T00:54:58.393Z,6.17
2022-11-15T00:57:25.029Z,7.60
2022-11-15T00:59:51.579Z,7.53
2022-11-15T01:02:18.171Z,5.47
2022-11-15T01:04:44.794Z,6.77
2022-11-15T01:07:11.488Z,7.13
2022-11-15T01:09:38.124Z,9.47
2022-11-15T01:12:05.053Z,6.73
2022-11-15T01:14:31.663Z,9.37
2022-11-15T01:16:58.307Z,10.47
2022-11-15T01:19:25.046Z,7.30
2022-11-15T01:21:51.968Z,7.27
2022-11-15T01:24:18.680Z,11.40
2022-11-15T01:26:45.453Z,8.60
2022-11-15T01:29:12.060Z,7.50
2022-11-15T01:31:38.961Z,9.27
2022-11-15T01:34:05.511Z,8.90
2022-11-15T01:36:32.180Z,8.63
2022-11-15T01:38:59.851Z,7.67
2022-11-15T01:41:30.636Z,7.47
2022-11-15T01:44:18.756Z,13.00
2022-11-15T01:46:48.611Z,13.60
2022-11-15T01:49:22.066Z,8.30
2022-11-15T01:51:48.856Z,9.50
2022-11-15T01:54:18.184Z,9.70
2022-11-15T01:56:57.581Z,10.67
2022-11-15T01:59:24.485Z,13.60
2022-11-15T02:01:51.861Z,10.83
2022-11-15T02:04:24.387Z,11.80
2022-11-15T02:06:51.117Z,12.47
2022-11-15T02:09:18.535Z,10.80
2022-11-15T02:11:46.171Z,9.37
2022-11-15T02:14:15.269Z,12.70
2022-11-15T02:17:29.577Z,13.73
2022-11-15T02:20:29.204Z,10.63
2022-11-15T02:23:20.557Z,9.47
2022-11-15T02:26:09.741Z,14.60
2022-11-15T02:28:49.249Z,14.43
2022-11-15T02:31:27.253Z,12.80
2022-11-15T02:34:31.756Z,15.37
2022-11-15T02:37:15.915Z,12.80
2022-11-15T02:40:00.507Z,15.37
2022-11-15T02:42:49.696Z,13.27
2022-11-15T02:45:27.616Z,13.63
2022-11-15T02:47:57.816Z,13.30
2022-11-15T02:50:28.095Z,14.70
2022-11-15T02:52:54.686Z,14.40
2022-11-15T02:55:33.876Z,13.77
2022-11-15T02:58:29.681Z,13.70
2022-11-15T03:01:09.688Z,17.20
2022-11-15T03:03:49.059Z,15.93
2022-11-15T03:06:35.123Z,13.97
2022-11-15T03:09:32.052Z,13.67
2022-11-15T03:12:12.145Z,12.77
2022-11-15T03:14:50.289Z,14.83
2022-11-15T03:17:31.532Z,13.27
2022-11-15T03:19:59.991Z,11.57
2022-11-15T03:22:30.146Z,11.27
2022-11-15T03:25:03.760Z,14.00
2022-11-15T03:27:36.385Z,11.83
2022-11-15T03:30:06.725Z,15.17
2022-11-15T03:32:38.434Z,16.20
2022-11-15T03:35:15.347Z,13.43
2022-11-15T03:37:50.313Z,13.73
2022-11-15T03:40:20.283Z,14.27
2022-11-15T03:43:08.180Z,12.13
2022-11-15T03:45:44.236Z,12.20
2022-11-15T03:48:25.359Z,13.80
2022-11-15T03:50:52.322Z,13.37
2022-11-15T03:53:18.957Z,14.47
2022-11-15T03:55:45.659Z,11.80
2022-11-15T03:58:12.283Z,12.30
2022-11-15T04:00:39.302Z,10.43
2022-11-15T04:03:06.004Z,13.93
2022-11-15T04:05:32.987Z,9.57
2022-11-15T04:08:00.004Z,12.43
2022-11-15T04:10:26.580Z,16.43
2022-11-15T04:12:53.826Z,11.77
2022-11-15T04:15:23.361Z,9.53
2022-11-15T04:17:52.351Z,12.20
2022-11-15T04:20:39.035Z,14.43
2022-11-15T04:23:31.006Z,15.40
2022-11-15T04:26:04.036Z,12.17
2022-11-15T04:28:31.226Z,12.53
2022-11-15T04:30:58.245Z,9.90
2022-11-15T04:33:25.255Z,13.13
2022-11-15T04:36:10.986Z,9.33
2022-11-15T04:38:38.210Z,12.80
2022-11-15T04:41:04.995Z,10.83
2022-11-15T04:43:32.412Z,10.83
2022-11-15T04:45:59.189Z,14.17
2022-11-15T04:48:26.249Z,18.40
2022-11-15T04:50:53.273Z,12.90
2022-11-15T04:53:20.278Z,10.77
2022-11-15T04:55:47.632Z,11.47
2022-11-15T04:58:14.678Z,10.23
2022-11-15T05:00:41.360Z,12.90
2022-11-15T05:03:29.004Z,10.27
2022-11-15T05:05:56.182Z,9.57
2022-11-15T05:08:23.213Z,10.03
2022-11-15T05:10:50.208Z,14.10
2022-11-15T05:13:17.215Z,8.27
2022-11-15T05:15:43.756Z,11.17
2022-11-15T05:18:10.498Z,8.17
2022-11-15T05:20:37.472Z,8.93
2022-11-15T05:23:04.577Z,10.90
2022-11-15T05:25:31.257Z,8.43
2022-11-15T05:27:58.290Z,12.50
2022-11-15T05:30:25.351Z,7.33
2022-11-15T05:32:52.408Z,9.53
2022-11-15T05:35:36.514Z,6.77
2022-11-15T05:38:03.517Z,7.33
2022-11-15T05:40:31.345Z,12.37
2022-11-15T05:42:58.759Z,7.83
2022-11-15T05:45:27.070Z,8.70
2022-11-15T05:47:56.951Z,7.07
2022-11-15T05:50:24.162Z,11.20
2022-11-15T05:52:51.536Z,8.20
2022-11-15T05:55:18.674Z,8.37
2022-11-15T05:57:46.105Z,8.50
2022-11-15T06:00:13.445Z,6.67
2022-11-15T06:02:40.595Z,8.93
2022-11-15T06:05:07.244Z,9.20
2022-11-15T06:07:34.360Z,8.03
2022-11-15T06:10:01.450Z,9.67
2022-11-15T06:12:28.523Z,9.77
2022-11-15T06:14:55.070Z,9.57
2022-11-15T06:17:21.747Z,8.63
2022-11-15T06:19:48.316Z,9.50
2022-11-15T06:22:14.907Z,7.73
2022-11-15T06:24:41.897Z,11.43
2022-11-15T06:27:08.593Z,11.67
2022-11-15T06:29:35.161Z,10.77
2022-11-15T06:32:01.745Z,9.57
2022-11-15T06:34:28.283Z,9.17
2022-11-15T06:36:54.915Z,9.30
2022-11-15T06:39:21.490Z,13.67
2022-11-15T06:41:48.108Z,11.63
2022-11-15T06:44:14.720Z,9.37
2022-11-15T06:46:41.284Z,9.87
2022-11-15T06:49:09.716Z,12.00
2022-11-15T06:51:36.836Z,9.07
2022-11-15T06:54:03.654Z,8.63
2022-11-15T06:56:30.288Z,11.27
2022-11-15T06:58:57.133Z,8.03
2022-11-15T07:01:23.868Z,9.60
2022-11-15T07:03:50.538Z,9.57
2022-11-15T07:06:17.077Z,8.83
2022-11-15T07:08:43.736Z,6.83
2022-11-15T07:11:10.523Z,7.33
2022-11-15T07:13:38.078Z,7.37
2022-11-15T07:16:06.582Z,6.37
2022-11-15T07:18:36.012Z,10.60
2022-11-15T07:21:07.515Z,8.27
2022-11-15T07:23:36.385Z,7.43
2022-11-15T07:26:03.600Z,7.30
2022-11-15T07:28:30.493Z,7.27
2022-11-15T07:30:57.553Z,7.13
2022-11-15T07:33:24.203Z,6.63
2022-11-15T07:35:50.822Z,8.80
2022-11-15T07:38:21.271Z,6.80
2022-11-15T07:40:47.999Z,6.60
2022-11-15T07:43:14.969Z,5.80
2022-11-15T07:45:43.633Z,7.30
2022-11-15T07:48:10.553Z,5.67
2022-11-15T07:50:37.223Z,7.40
2022-11-15T07:53:03.808Z,5.67
2022-11-15T07:55:30.672Z,5.07
2022-11-15T07:58:07.592Z,9.23
2022-11-15T08:00:35.200Z,8.30
2022-11-15T08:03:07.013Z,7.20
2022-11-15T08:05:34.496Z,10.50
2022-11-15T08:08:01.335Z,8.93
2022-11-15T08:10:28.987Z,4.70
2022-11-15T08:13:03.468Z,5.37
2022-11-15T08:15:31.091Z,7.20
2022-11-15T08:18:00.107Z,7.00
2022-11-15T08:20:29.579Z,7.50
2022-11-15T08:22:57.672Z,4.50
2022-11-15T08:25:27.223Z,4.37
2022-11-15T08:27:54.684Z,5.00
2022-11-15T08:30:21.973Z,8.60
2022-11-15T08:32:50.137Z,5.00
2022-11-15T08:35:17.379Z,6.30
2022-11-15T08:37:44.407Z,12.67
2022-11-15T08:40:11.702Z,6.20
2022-11-15T08:42:38.684Z,5.57
2022-11-15T08:45:05.721Z,5.87
2022-11-15T08:47:32.798Z,5.87
2022-11-15T08:49:59.443Z,4.63
2022-11-15T08:52:26.509Z,3.67
2022-11-15T08:54:53.169Z,3.80
2022-11-15T08:57:20.274Z,4.27
2022-11-15T08:59:47.267Z,6.90
2022-11-15T09:02:15.551Z,3.90
2022-11-15T09:04:43.440Z,3.47
2022-11-15T09:07:11.731Z,7.03
2022-11-15T09:09:39.155Z,6.03
2022-11-15T09:12:08.172Z,5.43
2022-11-15T09:14:35.355Z,4.30
2022-11-15T09:17:02.835Z,3.77
2022-11-15T09:19:29.544Z,2.50
2022-11-15T09:21:56.200Z,3.73
2022-11-15T09:24:23.431Z,4.80
2022-11-15T09:26:52.148Z,3.83
2022-11-15T09:29:19.345Z,4.13
2022-11-15T09:31:46.370Z,4.50
2022-11-15T09:34:12.929Z,4.77
2022-11-15T09:36:39.930Z,4.07
2022-11-15T09:39:06.966Z,6.97
2022-11-15T09:41:49.119Z,5.13
2022-11-15T09:44:35.957Z,3.53
2022-11-15T09:47:02.948Z,5.90
2022-11-15T09:49:31.117Z,5.63
2022-11-15T09:51:58.856Z,4.60
2022-11-15T09:54:53.317Z,5.03
2022-11-15T09:57:35.728Z,2.83
2022-11-15T10:00:45.967Z,4.97
2022-11-15T10:03:20.047Z,3.43
2022-11-15T10:05:52.409Z,2.93
2022-11-15T10:08:46.627Z,2.83
2022-11-15T10:11:41.193Z,3.40
2022-11-15T10:14:14.544Z,3.33
2022-11-15T10:17:08.272Z,2.70
2022-11-15T10:19:51.696Z,3.87
2022-11-15T10:22:33.293Z,3.97
2022-11-15T10:25:15.069Z,3.80
2022-11-15T10:27:44.026Z,4.00
2022-11-15T10:30:17.332Z,2.93
2022-11-15T10:32:46.185Z,3.33
2022-11-15T10:35:23.538Z,3.83
2022-11-15T10:37:50.603Z,1.90
2022-11-15T10:40:17.726Z,2.40
2022-11-15T10:42:44.912Z,3.07
2022-11-15T10:45:30.688Z,2.00
2022-11-15T10:48:22.113Z,1.40
2022-11-15T10:50:50.667Z,1.80
2022-11-15T10:53:45.875Z,3.20
2022-11-15T10:56:16.596Z,3.03
2022-11-15T10:58:50.717Z,1.67
2022-11-15T11:01:23.986Z,1.30
2022-11-15T11:04:09.146Z,1.93
2022-11-15T11:06:56.502Z,1.43
2022-11-15T11:09:37.731Z,4.83
2022-11-15T11:12:06.949Z,2.17
2022-11-15T11:14:36.935Z,1.97
2022-11-15T11:17:17.336Z,1.93
2022-11-15T11:19:59.029Z,1.03
2022-11-15T11:22:46.256Z,1.10
2022-11-15T11:25:31.696Z,1.20
2022-11-15T11:28:05.660Z,1.40
2022-11-15T11:31:15.376Z,2.43
2022-11-15T11:33:58.593Z,1.30
2022-11-15T11:36:47.549Z,1.47
2022-11-15T11:39:39.908Z,1.80
2022-11-15T11:42:26.561Z,1.23
2022-11-15T11:45:04.600Z,2.73
2022-11-15T11:47:36.265Z,1.63
2022-11-15T11:50:28.011Z,1.63
2022-11-15T11:53:22.765Z,1.50
2022-11-15T11:55:55.168Z,1.20
2022-11-15T11:58:43.896Z,2.90
2022-11-15T12:01:23.191Z,1.70
2022-11-15T12:04:02.048Z,2.13
2022-11-15T12:06:38.498Z,1.30
2022-11-15T12:09:24.601Z,1.73
2022-11-15T12:12:06.935Z,2.53
2022-11-15T12:14:47.916Z,1.30
2022-11-15T12:17:16.942Z,1.00
2022-11-15T12:19:43.965Z,1.20
2022-11-15T12:22:23.089Z,2.00
2022-11-15T12:24:59.660Z,1.10
2022-11-15T12:27:55.699Z,1.33
2022-11-15T12:30:23.869Z,2.03
2022-11-15T12:33:01.819Z,1.50
2022-11-15T12:35:34.809Z,2.27
2022-11-15T12:38:01.444Z,1.43
2022-11-15T12:40:28.554Z,1.40
2022-11-15T12:43:02.918Z,1.73
2022-11-15T12:45:40.561Z,1.73
2022-11-15T12:48:19.077Z,1.57
2022-11-15T12:50:51.676Z,2.93
2022-11-15T12:53:24.239Z,2.10
2022-11-15T12:56:15.800Z,3.50
2022-11-15T12:58:58.548Z,2.17
2022-11-15T13:01:34.686Z,2.07
2022-11-15T13:04:21.020Z,2.33
2022-11-15T13:07:04.204Z,3.50
2022-11-15T13:09:31.382Z,2.30
2022-11-15T13:12:04.926Z,2.50
2022-11-15T13:14:37.704Z,2.93
2022-11-15T13:17:22.795Z,2.63
2022-11-15T13:19:59.780Z,2.17
2022-11-15T13:22:59.971Z,2.93
2022-11-15T13:25:52.873Z,1.50
2022-11-15T13:28:19.495Z,3.03
2022-11-15T13:30:55.857Z,2.47
2022-11-15T13:33:36.373Z,2.70
2022-11-15T13:36:28.237Z,2.63
2022-11-15T13:39:00.657Z,2.43
2022-11-15T13:41:31.117Z,5.87
2022-11-15T13:43:58.547Z,3.97
2022-11-15T13:46:36.171Z,3.37
2022-11-15T13:49:12.248Z,2.00
2022-11-15T13:51:51.550Z,1.67
2022-11-15T13:54:26.849Z,2.10
2022-11-15T13:56:58.299Z,2.90
2022-11-15T13:59:30.633Z,2.80
2022-11-15T14:02:03.371Z,3.63
2022-11-15T14:04:34.638Z,1.60
2022-11-15T14:07:02.824Z,3.13
2022-11-15T14:09:35.515Z,2.37
2022-11-15T14:12:21.420Z,1.63
2022-11-15T14:14:48.640Z,1.70
2022-11-15T14:17:45.659Z,2.20
2022-11-15T14:20:31.516Z,1.77
2022-11-15T14:23:03.899Z,2.53
2022-11-15T14:25:32.850Z,3.13
2022-11-15T14:28:28.166Z,2.90
2022-11-15T14:30:57.361Z,2.37
2022-11-15T14:33:33.031Z,3.23
2022-11-15T14:36:16.479Z,1.10
2022-11-15T14:38:43.878Z,3.97
2022-11-15T14:41:20.275Z,1.83
2022-11-15T14:43:47.431Z,1.70
2022-11-15T14:46:14.426Z,3.90
2022-11-15T14:48:41.448Z,1.90
2022-11-15T14:51:16.201Z,1.03
2022-11-15T14:53:43.652Z,2.00
2022-11-15T14:56:10.905Z,5.90
2022-11-15T14:58:37.979Z,5.87
2022-11-15T15:01:18.547Z,3.70
2022-11-15T15:03:45.713Z,3.63
2022-11-15T15:06:17.893Z,2.20
2022-11-15T15:08:45.858Z,2.67
2022-11-15T15:11:17.148Z,3.70
2022-11-15T15:13:44.452Z,2.27
2022-11-15T15:16:11.528Z,1.63
2022-11-15T15:18:38.654Z,3.30
2022-11-15T15:21:26.320Z,1.90
2022-11-15T15:23:56.673Z,1.57
2022-11-15T15:26:24.657Z,3.77
2022-11-15T15:28:52.647Z,2.30
2022-11-15T15:31:20.123Z,5.00
2022-11-15T15:33:46.821Z,1.43
2022-11-15T15:36:14.724Z,2.70
2022-11-15T15:38:42.279Z,4.47
2022-11-15T15:41:17.567Z,1.50
2022-11-15T15:43:44.833Z,2.80
2022-11-15T15:46:14.909Z,1.43
2022-11-15T15:48:41.614Z,2.93
2022-11-15T15:51:15.364Z,1.80
2022-11-15T15:53:45.623Z,2.33
2022-11-15T15:56:12.873Z,2.27
2022-11-15T15:58:39.888Z,1.27
2022-11-15T16:01:06.955Z,1.43
2022-11-15T16:03:34.131Z,3.77
2022-11-15T16:06:02.189Z,1.77
2022-11-15T16:08:42.519Z,1.50
2022-11-15T16:11:14.585Z,1.30
2022-11-15T16:13:41.777Z,3.50
2022-11-15T16:16:13.532Z,1.93
2022-11-15T16:18:40.793Z,1.57
2022-11-15T16:21:09.095Z,19.67
2022-11-15T16:23:36.145Z,1.80
2022-11-15T16:26:04.281Z,2.97
2022-11-15T16:28:33.309Z,1.50
2022-11-15T16:31:07.286Z,1.27
2022-11-15T16:33:35.029Z,0.80
2022-11-15T16:36:02.611Z,1.67
2022-11-15T16:38:29.958Z,1.60
2022-11-15T16:40:56.997Z,3.90
2022-11-15T16:43:23.843Z,1.30
2022-11-15T16:45:51.543Z,3.93
2022-11-15T16:48:26.813Z,2.03
2022-11-15T16:51:04.853Z,2.53
2022-11-15T16:53:31.972Z,1.30
2022-11-15T16:55:58.637Z,3.33
2022-11-15T16:58:25.609Z,3.03
2022-11-15T17:00:56.825Z,5.43
2022-11-15T17:03:24.866Z,2.97
2022-11-15T17:05:52.132Z,2.30
2022-11-15T17:08:21.637Z,2.73
2022-11-15T17:10:48.290Z,2.10
2022-11-15T17:13:15.052Z,1.67
2022-11-15T17:15:41.804Z,4.10
2022-11-15T17:18:12.888Z,1.60
2022-11-15T17:20:40.762Z,1.60
2022-11-15T17:23:12.152Z,2.77
2022-11-15T17:25:38.764Z,2.40
2022-11-15T17:28:05.441Z,2.20
2022-11-15T17:30:32.001Z,1.70
2022-11-15T17:32:58.607Z,1.80
2022-11-15T17:35:25.153Z,4.33
2022-11-15T17:37:52.708Z,3.33
2022-11-15T17:40:19.281Z,2.60
2022-11-15T17:42:45.883Z,2.60
2022-11-15T17:45:12.624Z,3.17
2022-11-15T17:47:39.398Z,5.03
2022-11-15T17:50:06.152Z,3.00
2022-11-15T17:52:32.755Z,2.10
2022-11-15T17:54:59.380Z,2.40
2022-11-15T17:57:26.418Z,1.83
2022-11-15T17:59:53.090Z,1.97
2022-11-15T18:02:19.677Z,2.00
2022-11-15T18:04:46.708Z,2.63
2022-11-15T18:07:13.922Z,3.57
2022-11-15T18:09:43.633Z,2.20
2022-11-15T18:12:11.645Z,5.77
2022-11-15T18:14:38.450Z,3.57
2022-11-15T18:17:04.995Z,3.80
2022-11-15T18:19:31.602Z,4.87
2022-11-15T18:22:01.848Z,2.07
2022-11-15T18:24:31.222Z,2.30
2022-11-15T18:26:59.401Z,2.70
2022-11-15T18:29:26.456Z,2.30
2022-11-15T18:31:56.831Z,1.90
2022-11-15T18:34:25.390Z,2.67
2022-11-15T18:36:52.877Z,1.90
2022-11-15T18:39:20.061Z,1.40
2022-11-15T18:41:47.624Z,3.87
2022-11-15T18:44:14.756Z,3.00
2022-11-15T18:46:42.021Z,1.90
2022-11-15T18:49:10.963Z,1.97
2022-11-15T18:51:41.696Z,3.80
2022-11-15T18:54:10.912Z,2.90
2022-11-15T18:56:38.276Z,2.87
2022-11-15T18:59:05.591Z,1.63
2022-11-15T19:01:37.881Z,2.47
2022-11-15T19:04:10.998Z,2.33
2022-11-15T19:06:39.843Z,1.50
2022-11-15T19:09:07.700Z,3.07
2022-11-15T19:11:37.193Z,1.70
2022-11-15T19:14:06.929Z,1.83
2022-11-15T19:16:39.815Z,2.13
2022-11-15T19:19:14.840Z,3.50
2022-11-15T19:21:42.176Z,2.83
2022-11-15T19:24:10.263Z,2.80
2022-11-15T19:26:37.759Z,2.20
2022-11-15T19:29:06.357Z,1.57
2022-11-15T19:31:33.322Z,2.43
2022-11-15T19:34:02.273Z,1.73
2022-11-15T19:36:34.078Z,2.80
2022-11-15T19:39:08.180Z,3.43
2022-11-15T19:41:37.751Z,1.73
2022-11-15T19:44:06.928Z,2.97
2022-11-15T19:46:33.840Z,3.07
2022-11-15T19:49:01.173Z,2.33
2022-11-15T19:51:30.234Z,2.83
2022-11-15T19:53:59.545Z,1.80
2022-11-15T19:56:26.300Z,2.57
2022-11-15T19:58:55.203Z,1.97
2022-11-15T20:01:31.553Z,2.60
2022-11-15T20:03:59.817Z,3.30
2022-11-15T20:06:32.713Z,2.97
2022-11-15T20:08:59.533Z,1.83
2022-11-15T20:11:26.292Z,1.73
2022-11-15T20:13:58.566Z,2.22
2022-11-15T20:16:25.984Z,3.20
2022-11-15T20:18:53.268Z,2.87
2022-11-15T20:21:20.534Z,2.83
2022-11-15T20:23:47.890Z,1.53
2022-11-15T20:26:15.778Z,1.70
2022-11-15T20:28:44.332Z,1.60
2022-11-15T20:31:11.912Z,2.37
2022-11-15T20:33:38.863Z,2.20
2022-11-15T20:36:12.644Z,2.77
2022-11-15T20:38:39.638Z,2.03
2022-11-15T20:41:06.842Z,3.43
2022-11-15T20:43:33.501Z,3.07
2022-11-15T20:46:00.564Z,1.83
2022-11-15T20:48:27.679Z,2.07
2022-11-15T20:51:21.728Z,9.60
2022-11-15T20:53:49.162Z,2.07
2022-11-15T20:56:19.425Z,2.10
2022-11-15T20:58:47.222Z,2.90
2022-11-15T21:01:15.422Z,1.90
2022-11-15T21:03:42.726Z,2.07
2022-11-15T21:06:10.232Z,1.70
2022-11-15T21:08:55.873Z,3.70
2022-11-15T21:11:43.280Z,2.03
2022-11-15T21:14:10.279Z,2.07
2022-11-15T21:16:37.785Z,2.47
2022-11-15T21:19:05.656Z,4.20
2022-11-15T21:21:32.748Z,1.77
2022-11-15T21:24:00.023Z,4.63
2022-11-15T21:26:27.160Z,1.57
2022-11-15T21:28:54.160Z,1.90
2022-11-15T21:31:20.943Z,2.13
2022-11-15T21:33:48.004Z,3.50
2022-11-15T21:36:14.956Z,2.27
2022-11-15T21:38:41.949Z,4.30
2022-11-15T21:41:08.736Z,2.07
2022-11-15T21:43:35.741Z,1.73
2022-11-15T21:46:06.688Z,2.77
2022-11-15T21:48:35.354Z,2.43
2022-11-15T21:51:07.442Z,4.13
2022-11-15T21:53:34.795Z,2.97
2022-11-15T21:56:02.297Z,2.03
2022-11-15T21:58:29.502Z,1.87
2022-11-15T22:01:15.675Z,1.90
2022-11-15T22:03:43.161Z,2.07
2022-11-15T22:06:16.040Z,4.63
2022-11-15T22:08:45.051Z,2.50
2022-11-15T22:11:11.898Z,2.27
2022-11-15T22:13:38.717Z,2.13
2022-11-15T22:16:05.888Z,2.50
2022-11-15T22:18:33.298Z,3.10
2022-11-15T22:21:03.691Z,3.07
2022-11-15T22:23:32.328Z,2.70
2022-11-15T22:25:59.574Z,3.07
2022-11-15T22:28:26.458Z,2.63
2022-11-15T22:30:54.640Z,2.73
2022-11-15T22:33:26.761Z,2.50
2022-11-15T22:35:54.057Z,2.63
2022-11-15T22:38:21.204Z,3.73
2022-11-15T22:40:48.381Z,3.43
2022-11-15T22:43:17.381Z,2.50
2022-11-15T22:45:57.476Z,3.40
2022-11-15T22:48:27.140Z,2.67
2022-11-15T22:50:53.861Z,4.80
2022-11-15T22:53:21.110Z,3.03
2022-11-15T22:55:56.490Z,4.57
2022-11-15T22:58:24.660Z,5.37
2022-11-15T23:00:52.818Z,7.93
2022-11-15T23:03:20.789Z,2.77
2022-11-15T23:05:47.959Z,3.23
2022-11-15T23:08:15.099Z,4.13
2022-11-15T23:11:00.901Z,3.03
2022-11-15T23:13:30.188Z,3.00
2022-11-15T23:16:22.687Z,3.30
2022-11-15T23:18:55.719Z,3.37
2022-11-15T23:22:01.459Z,2.70
2022-11-15T23:24:28.831Z,2.63
2022-11-15T23:26:58.312Z,4.67
2022-11-15T23:29:26.345Z,4.70
2022-11-15T23:32:13.046Z,4.90
2022-11-15T23:34:42.214Z,4.97
2022-11-15T23:37:11.248Z,3.67
2022-11-15T23:39:37.839Z,2.77
2022-11-15T23:42:08.786Z,6.10
2022-11-15T23:44:36.450Z,5.53
2022-11-15T23:47:03.464Z,3.13
2022-11-15T23:49:30.543Z,4.40
2022-11-15T23:51:57.592Z,5.20
2022-11-15T23:54:24.303Z,3.40
2022-11-15T23:56:51.303Z,3.97
2022-11-15T23:59:18.202Z,3.40
